createdAt,value
2023-03-17T00:00:52.316Z,36.50
2023-03-17T00:04:01.558Z,36.83
2023-03-17T00:07:11.871Z,37.30
2023-03-17T00:13:32.263Z,36.97
2023-03-17T00:16:43.235Z,37.55
2023-03-17T00:19:52.481Z,36.08
2023-03-17T00:23:04.424Z,38.08
2023-03-17T00:26:15.404Z,40.72
2023-03-17T00:29:25.606Z,40.10
2023-03-17T00:32:34.869Z,44.35
2023-03-17T00:35:45.591Z,41.78
2023-03-17T00:38:54.881Z,42.38
2023-03-17T00:42:05.684Z,40.73
2023-03-17T00:45:15.872Z,39.17
2023-03-17T00:51:34.247Z,34.78
2023-03-17T00:54:43.417Z,43.60
2023-03-17T00:57:54.162Z,34.25
2023-03-17T01:01:03.433Z,44.17
2023-03-17T01:04:12.742Z,44.13
2023-03-17T01:07:22.563Z,44.28
2023-03-17T01:10:32.752Z,43.75
2023-03-17T01:13:43.326Z,43.70
2023-03-17T01:16:53.171Z,36.17
2023-03-17T01:20:03.029Z,29.95
2023-03-17T01:23:12.780Z,31.50
2023-03-17T01:26:22.317Z,36.65
2023-03-17T01:29:36.152Z,36.85
2023-03-17T01:32:45.517Z,31.52
2023-03-17T01:35:54.776Z,22.90
2023-03-17T01:39:05.512Z,28.30
2023-03-17T01:42:14.725Z,31.08
2023-03-17T01:46:01.555Z,33.65
2023-03-17T01:49:17.639Z,35.10
2023-03-17T01:52:26.846Z,29.35
2023-03-17T01:55:36.718Z,30.95
2023-03-17T01:58:48.572Z,26.57
2023-03-17T02:02:01.494Z,36.60
2023-03-17T02:05:14.733Z,32.08
2023-03-17T02:08:24.040Z,37.45
2023-03-17T02:11:34.222Z,38.38
2023-03-17T02:14:44.288Z,36.47
2023-03-17T02:17:55.585Z,42.80
2023-03-17T02:21:34.320Z,42.90
2023-03-17T02:24:45.093Z,32.20
2023-03-17T02:27:59.546Z,41.22
2023-03-17T02:31:09.554Z,45.20
2023-03-17T02:34:18.905Z,45.88
2023-03-17T02:37:29.727Z,37.22
2023-03-17T02:40:38.941Z,42.17
2023-03-17T02:43:48.206Z,46.22
2023-03-17T02:46:57.663Z,36.53
2023-03-17T02:50:07.516Z,39.73
2023-03-17T02:53:18.354Z,40.95
2023-03-17T02:56:28.177Z,40.83
2023-03-17T02:59:37.604Z,41.97
2023-03-17T03:02:47.154Z,41.50
2023-03-17T03:05:57.691Z,33.30
2023-03-17T03:09:08.610Z,44.13
2023-03-17T03:12:17.898Z,45.58
2023-03-17T03:15:27.098Z,44.97
2023-03-17T03:18:37.350Z,45.05
2023-03-17T03:24:57.242Z,46.08
2023-03-17T03:28:06.707Z,42.95
2023-03-17T03:31:16.280Z,45.10
2023-03-17T03:34:25.794Z,44.05
2023-03-17T03:37:35.116Z,33.08
2023-03-17T03:40:46.411Z,43.35
2023-03-17T03:43:55.677Z,38.67
2023-03-17T03:47:04.919Z,42.83
2023-03-17T03:50:14.524Z,39.13
2023-03-17T03:53:24.357Z,41.38
2023-03-17T03:56:35.099Z,33.55
2023-03-17T03:59:44.331Z,38.55
2023-03-17T04:02:53.538Z,42.75
2023-03-17T04:06:03.566Z,42.77
2023-03-17T04:09:12.830Z,40.38
2023-03-17T04:12:23.449Z,47.78
2023-03-17T04:15:33.175Z,45.00
2023-03-17T04:18:42.665Z,32.83
2023-03-17T04:21:53.715Z,46.50
2023-03-17T04:25:04.019Z,48.60
2023-03-17T04:28:14.593Z,48.00
2023-03-17T04:31:23.812Z,47.15
2023-03-17T04:34:33.355Z,46.30
2023-03-17T04:37:43.105Z,49.00
2023-03-17T04:40:52.748Z,29.90
2023-03-17T04:44:03.459Z,42.83
2023-03-17T04:47:12.803Z,45.00
2023-03-17T04:50:22.109Z,46.23
2023-03-17T04:53:31.718Z,36.22
2023-03-17T04:56:41.129Z,44.45
2023-03-17T04:59:52.224Z,48.08
2023-03-17T05:03:01.511Z,46.78
2023-03-17T05:06:11.127Z,49.42
2023-03-17T05:09:20.298Z,47.17
2023-03-17T05:12:29.775Z,46.00
2023-03-17T05:15:41.328Z,44.92
2023-03-17T05:18:50.768Z,44.20
2023-03-17T05:21:59.987Z,40.33
2023-03-17T05:25:10.137Z,42.40
2023-03-17T05:28:19.461Z,39.97
2023-03-17T05:31:31.126Z,39.63
2023-03-17T05:34:40.861Z,38.83
2023-03-17T05:37:50.010Z,37.63
2023-03-17T05:40:59.291Z,37.40
2023-03-17T05:44:08.656Z,37.30
2023-03-17T05:47:19.363Z,39.15
2023-03-17T05:50:29.325Z,34.20
2023-03-17T05:53:38.748Z,34.33
2023-03-17T05:56:47.916Z,31.15
2023-03-17T05:59:57.476Z,34.08
2023-03-17T06:03:08.204Z,27.50
2023-03-17T06:06:17.560Z,33.80
2023-03-17T06:09:26.745Z,32.35
2023-03-17T06:12:36.169Z,33.83
2023-03-17T06:15:45.544Z,26.53
2023-03-17T06:18:56.116Z,30.53
2023-03-17T06:22:05.585Z,29.65
2023-03-17T06:25:15.758Z,31.87
2023-03-17T06:28:25.333Z,33.22
2023-03-17T06:30:56.349Z,28.30
2023-03-17T06:33:25.644Z,29.83
2023-03-17T06:35:56.383Z,34.25
2023-03-17T06:38:25.617Z,31.90
2023-03-17T06:40:56.514Z,32.38
2023-03-17T06:43:25.695Z,27.25
2023-03-17T06:45:54.977Z,31.63
2023-03-17T06:48:24.527Z,28.80
2023-03-17T06:50:53.555Z,28.15
2023-03-17T06:53:24.106Z,14.07
2023-03-17T06:55:52.640Z,22.08
2023-03-17T06:58:21.959Z,28.33
2023-03-17T07:00:53.633Z,24.23
2023-03-17T07:03:24.228Z,17.45
2023-03-17T07:05:53.584Z,29.10
2023-03-17T07:08:23.876Z,26.55
2023-03-17T07:10:52.826Z,25.05
2023-03-17T07:13:22.394Z,23.73
2023-03-17T07:15:53.334Z,18.70
2023-03-17T07:18:24.033Z,17.80
2023-03-17T07:20:53.026Z,20.17
2023-03-17T07:23:24.983Z,20.67
2023-03-17T07:25:53.871Z,22.17
2023-03-17T07:28:22.845Z,17.60
2023-03-17T07:30:52.600Z,20.67
2023-03-17T07:33:22.361Z,18.77
2023-03-17T07:35:52.163Z,19.65
2023-03-17T07:38:21.180Z,19.95
2023-03-17T07:40:53.137Z,17.38
2023-03-17T07:43:22.114Z,15.60
2023-03-17T07:45:51.512Z,12.35
2023-03-17T07:48:21.286Z,16.47
2023-03-17T07:50:50.930Z,13.13
2023-03-17T07:53:19.922Z,11.70
2023-03-17T07:55:48.397Z,15.23
2023-03-17T07:58:18.789Z,16.15
2023-03-17T08:00:48.972Z,13.45
2023-03-17T08:03:17.913Z,14.48
2023-03-17T08:05:47.245Z,14.27
2023-03-17T08:08:16.282Z,15.13
2023-03-17T08:10:45.000Z,12.55
2023-03-17T08:13:14.316Z,7.55
2023-03-17T08:15:45.722Z,9.25
2023-03-17T08:18:14.704Z,10.05
2023-03-17T08:20:43.713Z,12.00
2023-03-17T08:23:13.081Z,8.77
2023-03-17T08:25:42.784Z,6.80
2023-03-17T08:28:11.836Z,12.00
2023-03-17T08:30:41.281Z,10.38
2023-03-17T08:33:12.731Z,7.00
2023-03-17T08:35:43.037Z,8.15
2023-03-17T08:40:41.600Z,9.90
2023-03-17T08:43:10.865Z,7.40
2023-03-17T08:45:40.954Z,7.22
2023-03-17T08:48:11.640Z,9.13
2023-03-17T08:50:40.755Z,8.45
2023-03-17T08:53:10.188Z,6.43
2023-03-17T08:55:39.220Z,5.45
2023-03-17T08:58:09.651Z,5.93
2023-03-17T09:00:38.632Z,4.32
2023-03-17T09:03:08.658Z,7.70
2023-03-17T09:05:38.982Z,8.25
2023-03-17T09:10:36.619Z,5.30
2023-03-17T09:13:05.629Z,3.47
2023-03-17T09:15:35.136Z,4.40
2023-03-17T09:18:05.725Z,4.00
2023-03-17T09:20:35.258Z,4.38
2023-03-17T09:23:09.264Z,5.13
2023-03-17T09:25:38.954Z,4.57
2023-03-17T09:28:08.058Z,4.28
2023-03-17T09:30:37.563Z,3.80
2023-03-17T09:33:06.808Z,5.10
2023-03-17T09:35:35.708Z,4.03
2023-03-17T09:38:04.710Z,3.83
2023-03-17T09:40:38.112Z,4.32
2023-03-17T09:43:13.680Z,5.20
2023-03-17T09:45:43.875Z,4.40
2023-03-17T09:50:59.062Z,3.50
2023-03-17T09:53:34.185Z,5.28
2023-03-17T09:56:09.549Z,3.85
2023-03-17T09:58:39.371Z,4.60
2023-03-17T10:01:10.869Z,4.38
2023-03-17T10:03:39.886Z,4.55
2023-03-17T10:06:29.662Z,3.80
2023-03-17T10:09:02.567Z,5.53
2023-03-17T10:11:41.065Z,4.45
2023-03-17T10:14:20.147Z,4.50
2023-03-17T10:16:54.862Z,5.07
2023-03-17T10:19:28.774Z,5.05
2023-03-17T10:22:00.879Z,4.40
2023-03-17T10:24:32.621Z,5.85
2023-03-17T10:27:06.540Z,4.78
2023-03-17T10:29:36.203Z,4.75
2023-03-17T10:32:06.136Z,5.50
2023-03-17T10:34:37.999Z,5.80
2023-03-17T10:37:09.739Z,5.82
2023-03-17T10:39:44.902Z,4.57
2023-03-17T10:42:23.183Z,4.00
2023-03-17T10:44:55.346Z,4.13
2023-03-17T10:47:26.922Z,5.47
2023-03-17T10:49:56.498Z,5.18
2023-03-17T10:52:28.961Z,5.35
2023-03-17T10:55:03.814Z,5.82
2023-03-17T10:57:34.667Z,4.55
2023-03-17T11:00:05.526Z,3.30
2023-03-17T11:02:38.438Z,5.22
2023-03-17T11:05:11.016Z,5.28
2023-03-17T11:07:41.928Z,5.47
2023-03-17T11:10:19.298Z,4.22
2023-03-17T11:12:51.611Z,5.30
2023-03-17T11:15:20.671Z,4.30
2023-03-17T11:17:54.684Z,4.25
2023-03-17T11:20:37.292Z,5.47
2023-03-17T11:23:08.811Z,4.45
2023-03-17T11:25:42.328Z,4.70
2023-03-17T11:28:19.985Z,4.95
2023-03-17T11:31:00.482Z,5.90
2023-03-17T11:33:37.809Z,6.05
2023-03-17T11:36:15.833Z,4.18
2023-03-17T11:38:54.496Z,4.65
2023-03-17T11:41:41.941Z,6.22
2023-03-17T11:44:23.566Z,5.40
2023-03-17T11:46:56.001Z,4.03
2023-03-17T11:49:30.251Z,6.88
2023-03-17T11:52:03.811Z,4.57
2023-03-17T11:54:41.539Z,5.10
2023-03-17T11:57:15.473Z,5.43
2023-03-17T11:59:49.819Z,4.32
2023-03-17T12:02:24.036Z,4.95
2023-03-17T12:04:55.731Z,6.05
2023-03-17T12:07:26.910Z,4.25
2023-03-17T12:10:03.284Z,4.53
2023-03-17T12:12:38.309Z,6.07
2023-03-17T12:15:15.983Z,6.53
2023-03-17T12:17:51.838Z,5.15
2023-03-17T12:20:25.706Z,4.72
2023-03-17T12:22:57.240Z,5.90
2023-03-17T12:25:29.620Z,4.97
2023-03-17T12:28:02.374Z,5.03
2023-03-17T12:30:47.671Z,6.78
2023-03-17T12:33:23.863Z,4.72
2023-03-17T12:35:53.870Z,5.63
2023-03-17T12:38:29.420Z,5.45
2023-03-17T12:41:13.340Z,5.30
2023-03-17T12:43:49.974Z,5.10
2023-03-17T12:46:30.765Z,6.07
2023-03-17T12:49:14.681Z,5.78
2023-03-17T12:51:59.144Z,6.43
2023-03-17T12:54:29.953Z,5.40
2023-03-17T12:57:03.993Z,4.90
2023-03-17T12:59:34.197Z,5.10
2023-03-17T13:02:17.742Z,5.90
2023-03-17T13:04:53.737Z,4.80
2023-03-17T13:07:25.888Z,4.95
2023-03-17T13:10:14.655Z,3.72
2023-03-17T13:13:08.978Z,5.57
2023-03-17T13:16:01.035Z,3.90
2023-03-17T13:18:50.366Z,3.67
2023-03-17T13:21:21.896Z,5.65
2023-03-17T13:23:57.914Z,4.50
2023-03-17T13:26:54.949Z,5.78
2023-03-17T13:29:39.361Z,5.20
2023-03-17T13:32:44.481Z,5.55
2023-03-17T13:35:41.569Z,6.47
2023-03-17T13:38:34.778Z,6.50
2023-03-17T13:41:38.279Z,5.60
2023-03-17T13:44:31.070Z,6.85
2023-03-17T13:47:17.432Z,4.38
2023-03-17T13:49:50.718Z,4.93
2023-03-17T13:52:27.645Z,5.88
2023-03-17T13:55:07.873Z,5.22
2023-03-17T13:57:41.878Z,4.10
2023-03-17T14:00:22.529Z,5.28
2023-03-17T14:02:57.990Z,6.50
2023-03-17T14:05:29.898Z,4.35
2023-03-17T14:08:02.286Z,5.10
2023-03-17T14:10:33.281Z,5.78
2023-03-17T14:13:08.120Z,6.05
2023-03-17T14:15:46.367Z,5.57
2023-03-17T14:18:18.071Z,5.32
2023-03-17T14:20:54.236Z,5.65
2023-03-17T14:23:25.015Z,7.55
2023-03-17T14:28:26.855Z,4.63
2023-03-17T14:30:58.263Z,6.78
2023-03-17T14:33:28.137Z,5.60
2023-03-17T14:35:59.974Z,4.40
2023-03-17T14:38:32.167Z,7.97
2023-03-17T14:41:03.031Z,6.05
2023-03-17T14:43:31.796Z,7.55
2023-03-17T14:46:02.944Z,6.75
2023-03-17T14:48:34.080Z,6.88
2023-03-17T14:51:06.809Z,5.68
2023-03-17T14:53:41.050Z,6.53
2023-03-17T14:56:10.639Z,7.90
2023-03-17T14:58:42.722Z,7.40
2023-03-17T15:01:17.718Z,7.63
2023-03-17T15:03:56.497Z,8.90
2023-03-17T15:06:27.631Z,8.35
2023-03-17T15:09:00.485Z,7.82
2023-03-17T15:11:37.739Z,9.63
2023-03-17T15:14:20.010Z,7.90
2023-03-17T15:16:50.969Z,8.13
2023-03-17T15:21:50.894Z,7.72
2023-03-17T15:24:35.865Z,9.00
2023-03-17T15:27:06.563Z,8.95
2023-03-17T15:29:35.590Z,8.20
2023-03-17T15:32:12.240Z,10.30
2023-03-17T15:34:40.931Z,7.72
2023-03-17T15:37:17.646Z,7.38
2023-03-17T15:39:48.604Z,9.38
2023-03-17T15:42:21.633Z,7.60
2023-03-17T15:44:50.714Z,7.18
2023-03-17T15:47:21.060Z,7.63
2023-03-17T15:49:50.681Z,8.75
2023-03-17T15:52:25.006Z,8.38
2023-03-17T15:54:56.592Z,9.55
2023-03-17T15:57:27.242Z,9.23
2023-03-17T15:59:56.723Z,6.28
2023-03-17T16:02:29.148Z,9.40
2023-03-17T16:04:57.776Z,7.72
2023-03-17T16:07:27.243Z,5.93
2023-03-17T16:09:58.114Z,6.97
2023-03-17T16:12:27.083Z,8.52
2023-03-17T16:14:56.035Z,8.73
2023-03-17T16:17:29.039Z,10.48
2023-03-17T16:19:58.133Z,7.95
2023-03-17T16:22:39.735Z,9.60
2023-03-17T16:25:19.646Z,8.25
2023-03-17T16:27:49.374Z,9.40
2023-03-17T16:30:19.492Z,9.85
2023-03-17T16:32:48.610Z,10.48
2023-03-17T16:35:19.466Z,8.85
2023-03-17T16:37:48.726Z,8.90
2023-03-17T16:40:24.250Z,9.10
2023-03-17T16:42:53.951Z,9.05
2023-03-17T16:45:27.755Z,9.38
2023-03-17T16:47:57.622Z,10.40
2023-03-17T16:50:28.735Z,8.98
2023-03-17T16:52:57.665Z,10.07
2023-03-17T16:55:29.097Z,9.32
2023-03-17T16:58:00.825Z,8.55
2023-03-17T17:00:31.602Z,9.73
2023-03-17T17:03:01.070Z,9.15
2023-03-17T17:05:31.317Z,9.30
2023-03-17T17:08:01.707Z,9.32
2023-03-17T17:10:34.303Z,8.65
2023-03-17T17:13:07.055Z,8.90
2023-03-17T17:15:37.546Z,9.52
2023-03-17T17:18:09.491Z,9.88
2023-03-17T17:20:40.649Z,10.35
2023-03-17T17:23:13.203Z,11.50
2023-03-17T17:25:43.710Z,11.38
2023-03-17T17:28:14.042Z,9.73
2023-03-17T17:33:14.437Z,11.43
2023-03-17T17:35:44.558Z,9.30
2023-03-17T17:38:19.682Z,8.90
2023-03-17T17:40:50.470Z,9.70
2023-03-17T17:43:19.525Z,8.32
2023-03-17T17:45:49.694Z,7.85
2023-03-17T17:48:19.873Z,7.90
2023-03-17T17:50:48.816Z,9.20
2023-03-17T17:53:18.169Z,8.82
2023-03-17T17:55:48.539Z,9.02
2023-03-17T17:58:21.489Z,8.98
2023-03-17T18:00:50.741Z,9.10
2023-03-17T18:03:24.545Z,10.10
2023-03-17T18:05:53.603Z,9.65
2023-03-17T18:08:22.895Z,9.98
2023-03-17T18:10:52.201Z,9.13
2023-03-17T18:13:24.681Z,10.70
2023-03-17T18:15:53.867Z,8.82
2023-03-17T18:18:22.734Z,9.15
2023-03-17T18:20:52.640Z,9.18
2023-03-17T18:23:21.708Z,10.63
2023-03-17T18:25:50.620Z,9.90
2023-03-17T18:28:19.592Z,10.27
2023-03-17T18:30:50.247Z,8.70
2023-03-17T18:33:20.698Z,9.60
2023-03-17T18:35:51.162Z,9.68
2023-03-17T18:40:48.483Z,8.75
2023-03-17T18:43:17.502Z,11.15
2023-03-17T18:45:46.595Z,9.88
2023-03-17T18:48:16.910Z,9.65
2023-03-17T18:53:14.598Z,9.90
2023-03-17T18:55:43.234Z,9.50
2023-03-17T18:58:12.932Z,7.15
2023-03-17T19:00:42.083Z,10.52
2023-03-17T19:03:11.135Z,12.20
2023-03-17T19:05:41.562Z,10.43
2023-03-17T19:10:39.015Z,10.27
2023-03-17T19:13:10.196Z,11.65
2023-03-17T19:15:39.413Z,9.30
2023-03-17T19:18:08.625Z,11.50
2023-03-17T19:20:37.982Z,12.25
2023-03-17T19:23:08.452Z,12.35
2023-03-17T19:25:37.488Z,11.75
2023-03-17T19:28:06.481Z,13.35
2023-03-17T19:30:35.850Z,12.27
2023-03-17T19:33:06.209Z,9.13
2023-03-17T19:35:35.432Z,13.32
2023-03-17T19:38:04.523Z,12.25
2023-03-17T19:40:34.602Z,12.68
2023-03-17T19:43:03.836Z,12.35
2023-03-17T19:45:32.745Z,12.10
2023-03-17T19:48:01.776Z,13.00
2023-03-17T19:50:33.060Z,12.20
2023-03-17T19:53:02.424Z,13.68
2023-03-17T19:55:31.232Z,14.13
2023-03-17T19:58:01.693Z,14.82
2023-03-17T20:02:59.572Z,14.27
2023-03-17T20:05:30.140Z,13.13
2023-03-17T20:07:59.289Z,14.70
2023-03-17T20:10:28.140Z,13.88
2023-03-17T20:12:57.319Z,13.60
2023-03-17T20:15:28.495Z,13.18
2023-03-17T20:17:57.386Z,11.65
2023-03-17T20:20:26.570Z,11.88
2023-03-17T20:22:55.081Z,9.82
2023-03-17T20:25:24.177Z,15.35
2023-03-17T20:27:53.489Z,15.57
2023-03-17T20:30:22.693Z,15.23
2023-03-17T20:32:53.268Z,15.05
2023-03-17T20:35:22.232Z,13.90
2023-03-17T20:37:51.492Z,17.13
2023-03-17T20:40:20.780Z,12.40
2023-03-17T20:42:49.791Z,14.00
2023-03-17T20:45:19.384Z,14.40
2023-03-17T20:47:48.696Z,13.53
2023-03-17T20:50:19.313Z,15.17
2023-03-17T20:52:48.003Z,15.20
2023-03-17T20:55:17.719Z,15.30
2023-03-17T20:57:47.606Z,13.35
2023-03-17T21:00:20.164Z,9.77
2023-03-17T21:02:50.468Z,14.73
2023-03-17T21:05:23.201Z,14.57
2023-03-17T21:07:52.803Z,13.50
2023-03-17T21:10:22.091Z,16.65
2023-03-17T21:12:51.277Z,14.68
2023-03-17T21:15:22.957Z,13.60
2023-03-17T21:17:53.780Z,11.55
2023-03-17T21:20:26.244Z,14.27
2023-03-17T21:22:54.877Z,13.48
2023-03-17T21:25:24.057Z,11.07
2023-03-17T21:27:52.964Z,11.07
2023-03-17T21:30:22.187Z,10.63
2023-03-17T21:32:51.208Z,12.65
2023-03-17T21:35:20.308Z,10.80
2023-03-17T21:37:51.616Z,13.68
2023-03-17T21:40:21.359Z,11.52
2023-03-17T21:42:50.485Z,12.98
2023-03-17T21:45:19.980Z,13.68
2023-03-17T21:47:48.943Z,12.70
2023-03-17T21:50:18.253Z,13.48
2023-03-17T21:52:46.812Z,12.55
2023-03-17T21:55:17.259Z,10.63
2023-03-17T21:57:46.575Z,10.00
2023-03-17T22:00:16.475Z,10.82
2023-03-17T22:02:45.498Z,10.63
2023-03-17T22:05:14.373Z,13.20
2023-03-17T22:07:43.928Z,12.65
2023-03-17T22:10:13.679Z,10.90
2023-03-17T22:12:44.136Z,11.15
2023-03-17T22:17:42.937Z,10.05
2023-03-17T22:20:13.053Z,12.40
2023-03-17T22:22:41.878Z,10.05
2023-03-17T22:25:11.108Z,12.88
2023-03-17T22:27:40.212Z,9.10
2023-03-17T22:30:12.659Z,8.85
2023-03-17T22:32:42.106Z,10.90
2023-03-17T22:35:11.291Z,11.95
2023-03-17T22:37:40.530Z,11.85
2023-03-17T22:40:10.768Z,11.68
2023-03-17T22:42:39.829Z,10.80
2023-03-17T22:45:13.104Z,9.68
2023-03-17T22:47:44.097Z,7.90
2023-03-17T22:50:13.196Z,11.32
2023-03-17T22:52:41.796Z,12.02
2023-03-17T22:55:11.537Z,11.45
2023-03-17T22:57:40.628Z,8.38
2023-03-17T23:00:16.623Z,7.68
2023-03-17T23:02:46.467Z,8.93
2023-03-17T23:05:16.087Z,8.02
2023-03-17T23:07:50.763Z,8.45
2023-03-17T23:10:23.327Z,6.22
2023-03-17T23:12:52.764Z,10.30
2023-03-17T23:15:23.569Z,10.73
2023-03-17T23:17:52.665Z,8.27
2023-03-17T23:20:21.933Z,9.43
2023-03-17T23:22:50.537Z,10.90
2023-03-17T23:25:19.605Z,8.95
2023-03-17T23:27:48.701Z,10.15
2023-03-17T23:30:18.902Z,10.27
2023-03-17T23:32:49.488Z,8.23
2023-03-17T23:35:19.653Z,7.85
2023-03-17T23:37:48.538Z,6.68
2023-03-17T23:40:17.698Z,9.38
2023-03-17T23:42:48.134Z,10.32
2023-03-17T23:47:46.750Z,9.05
2023-03-17T23:50:17.230Z,7.65
2023-03-17T23:52:47.237Z,7.05
2023-03-17T23:55:17.389Z,9.93
2023-03-17T23:57:46.646Z,8.05
